Time;durP1;ratioP1;P1;durP2;ratioP2;P2;SDS_P1;SDS_P2;PMS_P1;PMS_P2;Temp;Humidity;BMP_temperature;BMP_pressure;BME280_temperature;BME280_humidity;BME280_pressure;Samples;Min_cycle;Max_cycle;Signal;HPM_P1;HPM_P2
2022/01/12 00:00:23;;;;;;;13.43;6.00;;;;;;;-6.81;100.00;100326.70;1566470;91;21026;-72
2022/01/12 00:02:50;;;;;;;12.47;5.60;;;;;;;-6.85;100.00;100332.52;1532578;93;21074;-72
2022/01/12 00:05:18;;;;;;;12.40;5.93;;;;;;;-6.93;100.00;100338.49;1502564;94;21178;-73
2022/01/12 00:07:50;;;;;;;14.67;5.87;;;;;;;-6.98;100.00;100346.99;1527946;94;21102;-72
2022/01/12 00:10:19;;;;;;;13.40;5.77;;;;;;;-7.04;100.00;100351.16;1578283;91;21127;-73
2022/01/12 00:12:47;;;;;;;12.87;6.07;;;;;;;-7.10;100.00;100349.14;1578215;91;21122;-73
2022/01/12 00:15:15;;;;;;;13.23;5.93;;;;;;;-7.11;100.00;100358.38;1578464;90;21094;-72
2022/01/12 00:17:43;;;;;;;15.93;5.70;;;;;;;-7.12;100.00;100345.70;1578252;90;21078;-72
2022/01/12 00:20:11;;;;;;;14.53;6.33;;;;;;;-7.13;100.00;100354.48;1585549;89;21074;-72
2022/01/12 00:22:41;;;;;;;14.77;6.27;;;;;;;-7.12;100.00;100356.66;1598396;90;21153;-72
2022/01/12 00:33:14;;;;;;;16.27;5.30;;;;;;;-7.21;100.00;100363.07;1484064;97;21104;-73
2022/01/12 00:35:47;;;;;;;11.10;5.20;;;;;;;-7.26;100.00;100359.73;1484969;95;21592;-72
2022/01/12 00:38:15;;;;;;;15.93;5.33;;;;;;;-7.31;100.00;100365.59;1480416;97;21098;-72
2022/01/12 00:40:48;;;;;;;11.97;5.67;;;;;;;-7.34;100.00;100362.63;1495961;95;21127;-73
2022/01/12 00:43:15;;;;;;;;;;;;;;;-7.38;100.00;100369.33;1496061;96;21100;-72
2022/01/12 00:45:43;;;;;;;12.67;5.57;;;;;;;-7.42;100.00;100364.62;1495382;96;20114;-73
2022/01/12 00:48:11;;;;;;;12.47;5.67;;;;;;;-7.41;100.00;100365.05;1495061;96;21106;-73
2022/01/12 00:50:38;;;;;;;12.73;5.93;;;;;;;-7.43;100.00;100366.02;1495174;96;21108;-73
2022/01/12 00:53:05;;;;;;;24.60;8.90;;;;;;;-7.45;100.00;100366.06;1494743;96;21057;-73
2022/01/12 00:55:32;;;;;;;14.83;6.20;;;;;;;-7.46;100.00;100380.09;1495616;96;21064;-73
2022/01/12 00:58:00;;;;;;;14.90;6.40;;;;;;;-7.45;100.00;100379.20;1539258;93;21598;-72
2022/01/12 01:00:27;;;;;;;16.13;7.00;;;;;;;-7.43;100.00;100373.90;1582110;91;21061;-71
2022/01/12 01:02:56;;;;;;;13.83;5.80;;;;;;;-7.42;100.00;100369.88;1566890;89;21545;-74
2022/01/12 01:05:27;;;;;;;12.83;5.77;;;;;;;-7.42;100.00;100372.51;1623416;86;21017;-71
2022/01/12 01:07:54;;;;;;;22.80;6.60;;;;;;;-7.45;100.00;100374.80;1645261;86;21101;-72
2022/01/12 01:12:51;;;;;;;18.67;8.90;;;;;;;-7.51;100.00;100380.69;1631463;87;21018;-72
2022/01/12 01:15:27;;;;;;;9.03;5.23;;;;;;;-7.54;100.00;100380.34;1631263;88;21122;-73
2022/01/12 01:26:04;;;;;;;12.10;5.90;;;;;;;-7.55;100.00;100386.49;1693328;84;21044;-73
2022/01/12 01:28:31;;;;;;;11.83;5.73;;;;;;;-7.54;100.00;100387.34;1663771;86;21061;-72
2022/01/12 01:30:58;;;;;;;15.13;5.53;;;;;;;-7.53;100.00;100399.58;1693164;85;21035;-72
2022/01/12 01:33:27;;;;;;;12.80;5.30;;;;;;;-7.54;100.00;100401.78;1675428;84;20993;-71
2022/01/12 01:35:56;;;;;;;14.80;5.93;;;;;;;-7.57;100.00;100406.70;1669841;85;21015;-73
2022/01/12 01:38:25;;;;;;;15.97;5.47;;;;;;;-7.61;100.00;100410.33;1637156;86;21075;-72
2022/01/12 01:40:53;;;;;;;16.33;5.63;;;;;;;-7.64;100.00;100415.20;1609515;89;21084;-74
2022/01/12 01:43:39;;;;;;;10.90;5.33;;;;;;;-7.66;100.00;100403.05;1601697;88;21635;-72
2022/01/12 01:54:12;;;;;;;15.57;5.10;;;;;;;-7.74;100.00;100420.79;1619208;89;21064;-73
2022/01/12 01:56:41;;;;;;;14.20;5.42;;;;;;;-7.78;100.00;100426.59;1619525;89;21064;-73
2022/01/12 01:59:09;;;;;;;13.03;5.13;;;;;;;-7.79;100.00;100430.13;1619153;89;21103;-72
2022/01/12 02:01:39;;;;;;;11.80;4.90;;;;;;;-7.76;100.00;100430.02;1614155;89;21087;-73
2022/01/12 02:04:06;;;;;;;15.27;6.87;;;;;;;-7.74;100.00;100426.04;1592253;90;21639;-72
2022/01/12 02:06:36;;;;;;;15.27;5.70;;;;;;;-7.78;100.00;100429.67;1592063;89;21071;-71
2022/01/12 02:09:04;;;;;;;10.37;5.13;;;;;;;-7.80;100.00;100438.05;1587472;90;21086;-74
2022/01/12 02:11:40;;;;;;;13.83;5.43;;;;;;;-7.83;100.00;100440.30;1573108;90;21070;-72
2022/01/12 02:14:12;;;;;;;12.00;5.20;;;;;;;-7.87;100.00;100451.34;1591421;89;21101;-73
2022/01/12 02:16:51;;;;;;;13.67;5.40;;;;;;;-7.93;100.00;100455.90;1592070;90;21086;-72
2022/01/12 02:40:35;;;;;;;14.50;6.30;;;;;;;-8.11;100.00;100467.78;1614565;89;21079;-73
2022/01/12 02:43:26;;;;;;;13.33;6.20;;;;;;;-8.12;100.00;100468.24;1636479;86;21084;-73
2022/01/12 02:53:43;;;;;;;17.23;6.90;;;;;;;-8.21;100.00;100471.13;1638396;88;21549;-72
2022/01/12 02:56:19;;;;;;;16.10;6.70;;;;;;;-8.21;100.00;100472.44;1638199;88;21068;-71
2022/01/12 02:58:47;;;;;;;22.73;9.23;;;;;;;-8.19;100.00;100470.63;1638148;88;21574;-72
2022/01/12 03:04:02;;;;;;;31.80;13.03;;;;;;;-8.13;100.00;100463.88;1642460;86;21104;-72
2022/01/12 03:06:36;;;;;;;16.33;7.23;;;;;;;-8.10;100.00;100465.12;1654842;86;21034;-72
2022/01/12 03:09:04;;;;;;;15.53;6.62;;;;;;;-8.06;100.00;100463.27;1655219;85;21006;-73
2022/01/12 03:11:32;;;;;;;17.47;8.37;;;;;;;-8.02;100.00;100459.22;1654952;86;21085;-74
2022/01/12 03:14:01;;;;;;;21.90;10.23;;;;;;;-8.01;100.00;100460.06;1651052;87;21542;-72
2022/01/12 03:16:28;;;;;;;18.17;8.80;;;;;;;-7.98;100.00;100465.23;1654659;85;21010;-71
2022/01/12 03:18:59;;;;;;;13.93;7.20;;;;;;;-7.94;100.00;100462.07;1628098;87;21022;-73
2022/01/12 03:21:30;;;;;;;16.83;7.43;;;;;;;-7.94;100.00;100458.98;1654947;85;21549;-72
2022/01/12 03:23:57;;;;;;;18.20;7.73;;;;;;;-7.95;100.00;100469.09;1654487;87;21116;-74
2022/01/12 03:26:28;;;;;;;16.93;7.90;;;;;;;-7.95;100.00;100462.53;1636019;87;21553;-73
2022/01/12 03:28:56;;;;;;;18.80;7.73;;;;;;;-7.95;100.00;100463.84;1636946;87;21107;-73
2022/01/12 03:31:28;;;;;;;17.23;8.03;;;;;;;-7.96;100.00;100458.64;1655427;85;21021;-73
2022/01/12 03:34:00;;;;;;;15.00;7.43;;;;;;;-7.99;100.00;100462.66;1591675;90;21593;-73
2022/01/12 03:39:12;;;;;;;17.60;8.30;;;;;;;-8.01;100.00;100460.92;1591670;90;21062;-74
2022/01/12 03:41:43;;;;;;;19.30;8.00;;;;;;;-7.99;100.00;100464.81;1624522;88;22339;-71
2022/01/12 03:44:13;;;;;;;15.87;7.90;;;;;;;-7.99;100.00;100455.62;1603243;89;21166;-72
2022/01/12 03:46:50;;;;;;;17.83;8.33;;;;;;;-8.02;100.00;100458.33;1625632;88;21114;-72
2022/01/12 03:49:19;;;;;;;16.73;7.57;;;;;;;-8.06;100.00;100458.88;1603827;89;21073;-73
2022/01/12 03:51:46;;;;;;;18.37;8.07;;;;;;;-8.07;100.00;100453.69;1603585;89;21110;-72
2022/01/12 03:54:13;;;;;;;16.83;7.57;;;;;;;-8.08;100.00;100461.99;1604254;89;21099;-72
2022/01/12 03:56:40;;;;;;;17.97;8.30;;;;;;;-8.07;100.00;100459.80;1624135;88;21114;-73
2022/01/12 03:59:07;;;;;;;21.07;8.83;;;;;;;-8.05;100.00;100459.30;1603359;89;21086;-73
2022/01/12 04:01:37;;;;;;;17.00;8.17;;;;;;;-8.02;100.00;100455.70;1605752;88;21567;-73
2022/01/12 04:04:09;;;;;;;18.60;7.67;;;;;;;-8.01;100.00;100449.56;1617771;89;21087;-73
2022/01/12 04:09:21;;;;;;;17.77;7.90;;;;;;;-8.04;100.00;100449.22;1617012;89;21082;-73
2022/01/12 04:11:48;;;;;;;15.77;7.70;;;;;;;-8.05;100.00;100447.95;1617321;88;21591;-72
2022/01/12 04:14:15;;;;;;;16.30;7.73;;;;;;;-8.04;100.00;100448.33;1617199;89;21059;-74
2022/01/12 04:16:45;;;;;;;16.00;7.63;;;;;;;-8.03;100.00;100448.75;1617646;89;21565;-73
2022/01/12 04:19:12;;;;;;;14.30;6.83;;;;;;;-8.01;100.00;100445.62;1617477;89;20999;-72
2022/01/12 04:21:47;;;;;;;23.03;7.10;;;;;;;-8.02;100.00;100443.89;1616842;89;21149;-73
2022/01/12 04:24:13;;;;;;;14.83;7.12;;;;;;;-8.04;100.00;100451.84;1654768;85;21152;-72
2022/01/12 04:26:40;;;;;;;16.17;7.10;;;;;;;-8.06;100.00;100443.59;1630604;88;21058;-75
2022/01/12 04:29:07;;;;;;;18.77;7.87;;;;;;;-8.09;100.00;100449.80;1590260;90;21084;-73
2022/01/12 04:31:35;;;;;;;18.20;8.30;;;;;;;-8.08;100.00;100453.27;1702586;84;21037;-73
2022/01/12 04:34:03;;;;;;;14.60;7.47;;;;;;;-8.06;100.00;100461.50;1654902;87;21013;-73
2022/01/12 04:36:34;;;;;;;17.50;6.80;;;;;;;-8.03;100.00;100463.19;1626945;88;21066;-73
2022/01/12 04:39:01;;;;;;;13.83;6.80;;;;;;;-8.02;100.00;100456.59;1653613;85;21042;-73
2022/01/12 04:41:28;;;;;;;19.40;6.60;;;;;;;-8.02;100.00;100455.70;1639613;88;21091;-72
2022/01/12 04:43:56;;;;;;;15.07;6.77;;;;;;;-8.05;100.00;100460.60;1667138;84;21045;-72
2022/01/12 04:46:31;;;;;;;16.17;7.13;;;;;;;-8.07;100.00;100458.48;1674521;86;21022;-75
2022/01/12 04:51:23;;;;;;;18.47;8.50;;;;;;;-8.10;100.00;100466.43;1673715;86;21018;-75
2022/01/12 04:53:50;;;;;;;31.53;16.80;;;;;;;-8.09;100.00;100463.34;1658254;86;21030;-71
2022/01/12 04:56:17;;;;;;;26.03;14.77;;;;;;;-8.10;100.00;100459.88;1686511;85;21070;-71
2022/01/12 04:58:45;;;;;;;25.50;13.60;;;;;;;-8.09;100.00;100464.66;1687097;85;21015;-70
2022/01/12 05:01:22;;;;;;;21.17;12.27;;;;;;;-8.09;100.00;100462.92;1744573;82;21869;-70
2022/01/12 05:06:55;;;;;;;19.73;10.40;;;;;;;-8.15;100.00;100467.47;1770165;81;21116;-70
2022/01/12 05:14:39;;;;;;;20.10;10.50;;;;;;;-8.16;100.00;100474.48;1776512;81;21077;-70
2022/01/12 05:17:04;;;;;;;15.93;7.80;;;;;;;-8.17;100.00;100471.44;1772794;81;21074;-71
2022/01/12 05:19:31;;;;;;;17.80;9.03;;;;;;;-8.17;100.00;100485.02;1772751;81;21092;-69
2022/01/12 05:21:58;;;;;;;19.20;8.73;;;;;;;-8.20;100.00;100480.70;1733048;83;21107;-70
2022/01/12 05:24:25;;;;;;;19.67;9.03;;;;;;;-8.21;100.00;100475.91;1734347;83;21016;-70
2022/01/12 05:26:53;;;;;;;19.10;8.30;;;;;;;-8.21;100.00;100476.38;1735222;83;21024;-70
2022/01/12 05:29:21;;;;;;;15.47;8.40;;;;;;;-8.21;100.00;100478.53;1759936;81;21534;-70
2022/01/12 05:31:49;;;;;;;17.47;8.73;;;;;;;-8.21;100.00;100477.23;1735008;83;21056;-69
2022/01/12 05:34:16;;;;;;;16.97;7.53;;;;;;;-8.16;100.00;100485.41;1734910;83;21051;-70
2022/01/12 05:36:43;;;;;;;21.60;9.30;;;;;;;-8.14;100.00;100480.98;1735122;83;21556;-71
2022/01/12 05:39:10;;;;;;;22.57;9.00;;;;;;;-8.16;100.00;100484.98;1760110;81;21521;-70
2022/01/12 05:41:37;;;;;;;21.27;9.50;;;;;;;-8.18;100.00;100488.08;1735036;83;21541;-70
2022/01/12 05:44:07;;;;;;;21.37;9.50;;;;;;;-8.18;100.00;100483.28;1759764;81;21084;-69
2022/01/12 05:46:37;;;;;;;17.07;7.87;;;;;;;-8.21;100.00;100492.97;1734908;83;21064;-69
2022/01/12 05:51:51;;;;;;;17.50;9.17;;;;;;;-8.25;100.00;100490.45;1727332;83;21178;-70
2022/01/12 05:54:18;;;;;;;23.53;9.93;;;;;;;-8.29;100.00;100491.45;1727390;83;21081;-69
2022/01/12 05:56:47;;;;;;;17.90;8.17;;;;;;;-8.35;100.00;100500.34;1727323;83;21057;-70
2022/01/12 05:59:14;;;;;;;15.97;7.70;;;;;;;-8.37;100.00;100493.40;1727138;83;21061;-70
2022/01/12 06:01:41;;;;;;;17.50;8.33;;;;;;;-8.43;100.00;100501.91;1733090;82;21102;-70
2022/01/12 06:04:09;;;;;;;20.20;9.70;;;;;;;-8.46;100.00;100501.13;1757045;82;21052;-70
2022/01/12 06:06:36;;;;;;;17.63;8.27;;;;;;;-8.46;100.00;100502.43;1757633;82;20989;-69
2022/01/12 06:09:04;;;;;;;20.20;9.57;;;;;;;-8.47;100.00;100505.48;1746306;82;21004;-69
2022/01/12 06:11:33;;;;;;;26.70;12.90;;;;;;;-8.47;100.00;100517.28;1773273;81;21108;-70
2022/01/12 06:14:02;;;;;;;36.70;17.63;;;;;;;-8.47;100.00;100519.05;1667946;85;21055;-70
2022/01/12 06:16:31;;;;;;;33.67;14.77;;;;;;;-8.47;100.00;100521.67;1697624;83;21494;-71
2022/01/12 06:19:00;;;;;;;26.97;11.57;;;;;;;-8.48;100.00;100524.77;1673881;84;21306;-71
2022/01/12 06:21:27;;;;;;;18.03;8.13;;;;;;;-8.48;100.00;100523.45;1669609;84;21064;-69
2022/01/12 06:23:56;;;;;;;25.67;12.60;;;;;;;-8.44;100.00;100526.85;1601714;89;21101;-71
2022/01/12 06:26:26;;;;;;;34.73;17.80;;;;;;;-8.40;100.00;100525.37;1573183;89;21053;-71
2022/01/12 06:31:44;;;;;;;47.83;25.17;;;;;;;-8.32;100.00;100526.51;1612413;87;21224;-71
2022/01/12 06:34:11;;;;;;;26.20;9.93;;;;;;;-8.25;100.00;100527.19;1610199;87;21050;-72
2022/01/12 06:36:39;;;;;;;69.73;30.97;;;;;;;-8.18;100.00;100533.99;1627181;87;21050;-72
2022/01/12 06:39:10;;;;;;;38.80;18.60;;;;;;;-8.13;100.00;100541.30;1611263;87;21042;-72
2022/01/12 06:41:38;;;;;;;26.67;9.70;;;;;;;-8.06;100.00;100553.81;1628327;87;21635;-70
2022/01/12 06:44:06;;;;;;;26.50;9.90;;;;;;;-7.99;100.00;100544.02;1620605;87;21104;-70
2022/01/12 06:46:35;;;;;;;26.67;10.80;;;;;;;-7.96;100.00;100547.42;1599526;88;21022;-71
2022/01/12 06:49:02;;;;;;;26.50;11.00;;;;;;;-7.95;100.00;100554.41;1614271;87;21058;-70
2022/01/12 06:51:30;;;;;;;27.97;13.40;;;;;;;-7.93;100.00;100554.34;1619052;87;21083;-70
2022/01/12 06:53:57;;;;;;;23.67;11.10;;;;;;;-7.89;100.00;100559.94;1577774;87;21045;-72
2022/01/12 06:56:26;;;;;;;29.73;13.33;;;;;;;-7.87;100.00;100558.13;1617660;87;21063;-70
2022/01/12 06:58:55;;;;;;;30.90;15.27;;;;;;;-7.84;100.00;100568.55;1617531;87;21052;-71
2022/01/12 07:01:24;;;;;;;24.47;9.70;;;;;;;-7.80;100.00;100573.27;1594129;87;21033;-70
2022/01/12 07:03:51;;;;;;;32.27;14.07;;;;;;;-7.76;100.00;100569.64;1626630;87;21196;-70
2022/01/12 07:06:18;;;;;;;35.83;21.13;;;;;;;-7.73;100.00;100577.45;1629601;87;21231;-71
2022/01/12 07:08:45;;;;;;;30.00;15.87;;;;;;;-7.67;100.00;100582.52;1628464;87;21058;-71
2022/01/12 07:11:15;;;;;;;37.10;19.67;;;;;;;-7.61;100.00;100588.05;1623175;87;21102;-70
2022/01/12 07:13:43;;;;;;;29.53;15.90;;;;;;;-7.57;100.00;100591.02;1617642;89;21172;-70
2022/01/12 07:16:11;;;;;;;47.10;31.33;;;;;;;-7.52;100.00;100590.44;1580661;90;21134;-70
2022/01/12 07:18:39;;;;;;;22.53;10.63;;;;;;;-7.48;100.00;100581.56;1617520;88;21106;-71
2022/01/12 07:21:07;;;;;;;23.50;12.57;;;;;;;-7.49;100.00;100583.33;1613602;87;21112;-65
2022/01/12 07:23:34;;;;;;;27.53;14.60;;;;;;;-7.45;100.00;100585.42;1630246;87;21693;-71
2022/01/12 07:26:01;;;;;;;54.73;25.57;;;;;;;-7.39;100.00;100583.91;1618709;86;21020;-71
2022/01/12 07:28:28;;;;;;;65.00;30.17;;;;;;;-7.32;100.00;100589.40;1656607;87;21097;-71
2022/01/12 07:30:56;;;;;;;34.77;18.70;;;;;;;-7.28;100.00;100591.05;1632840;86;21029;-71
2022/01/12 07:33:25;;;;;;;27.90;12.30;;;;;;;-7.19;100.00;100598.24;1652377;86;21545;-71
2022/01/12 07:35:52;;;;;;;29.33;14.23;;;;;;;-7.10;100.00;100597.53;1656664;87;21069;-70
2022/01/12 07:38:19;;;;;;;80.40;45.77;;;;;;;-6.96;100.00;100606.76;1656515;87;21072;-74
2022/01/12 07:40:54;;;;;;;40.40;24.93;;;;;;;-6.81;100.00;100607.63;1651537;86;21081;-73
2022/01/12 07:43:21;;;;;;;27.93;15.57;;;;;;;-6.71;100.00;100608.18;1675438;85;21069;-72
2022/01/12 07:45:48;;;;;;;29.07;15.80;;;;;;;-6.60;100.00;100606.09;1726284;82;21030;-73
2022/01/12 07:48:16;;;;;;;35.33;14.03;;;;;;;-6.52;100.00;100611.11;1723893;83;21031;-71
2022/01/12 07:50:44;;;;;;;32.03;16.07;;;;;;;-6.44;100.00;100620.09;1693689;84;21042;-72
2022/01/12 07:53:12;;;;;;;25.53;15.33;;;;;;;-6.37;100.00;100622.93;1667301;85;21062;-72
2022/01/12 07:55:39;;;;;;;27.80;18.07;;;;;;;-6.25;100.00;100633.06;1684974;85;21038;-71
2022/01/12 07:58:06;;;;;;;30.50;18.00;;;;;;;-6.07;100.00;100646.50;1650914;86;21228;-72
2022/01/12 08:00:33;;;;;;;37.67;20.57;;;;;;;-6.02;100.00;100649.85;1690016;83;21036;-70
2022/01/12 08:03:00;;;;;;;35.97;22.03;;;;;;;-5.88;100.00;100649.36;1618940;86;21206;-70
2022/01/12 08:09:43;;;;;;;42.83;23.33;;;;;;;-5.60;100.00;100650.13;1662936;85;21014;-72
2022/01/12 08:12:11;;;;;;;63.07;25.63;;;;;;;-5.59;100.00;100654.97;1651797;85;21018;-73
2022/01/12 08:14:39;;;;;;;52.57;33.20;;;;;;;-5.58;100.00;100662.83;1733781;82;21098;-71
2022/01/12 08:17:06;;;;;;;34.53;20.33;;;;;;;-5.58;100.00;100658.88;1696991;83;21134;-70
2022/01/12 08:19:36;;;;;;;31.43;16.80;;;;;;;-5.64;100.00;100671.39;1727081;82;21048;-72
2022/01/12 08:22:03;;;;;;;48.23;28.70;;;;;;;-5.73;100.00;100677.83;1701076;82;21537;-70
2022/01/12 08:24:30;;;;;;;29.43;14.70;;;;;;;-5.86;100.00;100683.09;1722155;83;21050;-70
2022/01/12 08:26:57;;;;;;;26.00;12.20;;;;;;;-6.03;100.00;100690.28;1736801;81;21009;-70
2022/01/12 08:29:27;;;;;;;24.90;11.77;;;;;;;-6.24;100.00;100700.57;1725949;81;20991;-70
2022/01/12 08:31:53;;;;;;;28.67;12.20;;;;;;;-6.41;100.00;100702.86;1663547;85;21016;-71
2022/01/12 08:34:20;;;;;;;22.67;9.43;;;;;;;-6.53;100.00;100693.12;1730889;83;21571;-69
2022/01/12 08:36:47;;;;;;;22.37;11.40;;;;;;;-6.56;100.00;100681.84;1730088;82;20997;-70
2022/01/12 08:39:14;;;;;;;28.90;15.23;;;;;;;-6.60;100.00;100682.85;1729432;83;21198;-70
2022/01/12 08:41:42;;;;;;;27.13;13.27;;;;;;;-6.67;100.00;100682.17;1685024;84;21011;-71
2022/01/12 08:44:10;;;;;;;27.93;12.97;;;;;;;-6.74;100.00;100688.05;1659535;85;21713;-68
2022/01/12 08:46:38;;;;;;;24.00;10.50;;;;;;;-6.83;100.00;100683.50;1670530;85;21033;-70
2022/01/12 08:49:05;;;;;;;16.37;8.33;;;;;;;-6.94;100.00;100689.96;1648529;86;21024;-71
2022/01/12 08:51:32;;;;;;;27.43;16.67;;;;;;;-7.01;100.00;100684.47;1675352;85;21094;-71
2022/01/12 08:53:59;;;;;;;33.87;22.43;;;;;;;-7.08;100.00;100685.09;1673867;86;21100;-68
2022/01/12 08:56:27;;;;;;;39.60;19.30;;;;;;;-7.15;100.00;100684.86;1671355;86;21076;-70
2022/01/12 08:58:54;;;;;;;42.03;20.03;;;;;;;-7.20;100.00;100675.38;1704968;83;21010;-69
2022/01/12 09:01:21;;;;;;;36.90;16.53;;;;;;;-7.19;100.00;100675.77;1691949;84;21519;-70
2022/01/12 09:03:49;;;;;;;35.00;16.97;;;;;;;-7.17;100.00;100673.96;1675728;84;21040;-72
2022/01/12 09:06:16;;;;;;;32.50;14.27;;;;;;;-7.11;100.00;100667.23;1699365;84;21015;-69
2022/01/12 09:08:45;;;;;;;24.80;11.93;;;;;;;-7.04;100.00;100663.52;1674671;85;21064;-69
2022/01/12 09:11:13;;;;;;;49.80;26.50;;;;;;;-6.99;100.00;100659.00;1671636;85;21132;-69
2022/01/12 09:13:40;;;;;;;34.93;18.70;;;;;;;-6.90;100.00;100660.50;1731050;82;21051;-69
2022/01/12 09:16:08;;;;;;;23.03;13.27;;;;;;;-6.83;100.00;100654.58;1730590;82;21007;-68
2022/01/12 09:18:40;;;;;;;26.20;13.30;;;;;;;-6.86;100.00;100659.48;1726233;82;21038;-70
2022/01/12 09:21:07;;;;;;;23.60;11.20;;;;;;;-6.89;100.00;100658.26;1736459;82;21029;-72
2022/01/12 09:23:34;;;;;;;31.63;13.83;;;;;;;-6.91;100.00;100653.03;1696906;84;21051;-72
2022/01/12 09:26:03;;;;;;;28.20;12.00;;;;;;;-6.91;100.00;100647.78;1696228;84;21012;-66
2022/01/12 09:28:33;;;;;;;39.37;16.67;;;;;;;-6.92;100.00;100652.65;1708529;84;21076;-70
2022/01/12 09:31:00;;;;;;;29.00;12.87;;;;;;;-6.93;100.00;100648.75;1673819;84;21040;-69
2022/01/12 09:33:27;;;;;;;28.67;13.50;;;;;;;-6.93;100.00;100644.34;1673008;84;21024;-68
2022/01/12 09:35:54;;;;;;;31.57;14.33;;;;;;;-6.94;100.00;100640.01;1677282;85;21034;-70
2022/01/12 09:38:22;;;;;;;27.13;11.77;;;;;;;-6.91;100.00;100644.30;1668695;84;21057;-70
2022/01/12 09:40:52;;;;;;;25.07;9.30;;;;;;;-6.90;100.00;100639.46;1696000;84;21074;-71
2022/01/12 09:43:19;;;;;;;19.47;8.47;;;;;;;-6.97;100.00;100636.14;1692019;83;21035;-73
2022/01/12 09:45:51;;;;;;;27.73;10.73;;;;;;;-7.07;100.00;100629.43;1691723;84;21631;-72
2022/01/12 09:48:19;;;;;;;20.40;8.90;;;;;;;-7.17;100.00;100632.79;1661682;85;21607;-72
2022/01/12 09:50:47;;;;;;;23.67;9.57;;;;;;;-7.29;100.00;100619.54;1700641;83;21553;-70
2022/01/12 09:53:14;;;;;;;26.23;14.43;;;;;;;-7.33;100.00;100620.97;1718555;83;21040;-72
2022/01/12 09:55:41;;;;;;;23.33;11.67;;;;;;;-7.47;100.00;100607.78;1708001;83;21038;-71
2022/01/12 09:58:08;;;;;;;28.80;13.97;;;;;;;-7.55;100.00;100613.70;1674997;83;21055;-72
2022/01/12 10:00:35;;;;;;;26.03;12.73;;;;;;;-7.59;100.00;100616.01;1707611;83;21104;-70
2022/01/12 10:03:12;;;;;;;35.53;17.83;;;;;;;-7.62;100.00;100613.92;1697847;82;21029;-70
2022/01/12 10:05:38;;;;;;;19.93;10.97;;;;;;;-7.65;100.00;100597.77;1668794;85;21587;-71
2022/01/12 10:08:13;;;;;;;19.90;9.67;;;;;;;-7.61;100.00;100597.23;1651024;86;22258;-70
2022/01/12 10:10:42;;;;;;;19.60;10.27;;;;;;;-7.57;100.00;100592.33;1643023;86;21503;-71
2022/01/12 10:13:23;;;;;;;21.80;10.17;;;;;;;-7.58;100.00;100583.56;1668010;86;21066;-71
2022/01/12 10:15:51;;;;;;;26.43;11.33;;;;;;;-7.60;100.00;100584.53;1650127;85;21097;-72
2022/01/12 10:18:22;;;;;;;16.03;8.10;;;;;;;-7.61;100.00;100578.42;1630236;86;21061;-73
2022/01/12 10:20:49;;;;;;;27.07;13.53;;;;;;;-7.60;100.00;100583.22;1603168;88;21067;-73
2022/01/12 10:23:16;;;;;;;22.73;11.20;;;;;;;-7.58;100.00;100573.52;1624933;88;21559;-71
2022/01/12 10:25:46;;;;;;;23.80;11.27;;;;;;;-7.54;100.00;100577.34;1646629;86;21058;-70
2022/01/12 10:28:19;;;;;;;28.83;12.40;;;;;;;-7.45;100.00;100567.03;1648222;85;21091;-69
2022/01/12 10:30:58;;;;;;;;;;;;;;;-7.31;100.00;100562.66;1633360;87;21096;-70
2022/01/12 10:33:28;;;;;;;28.67;13.33;;;;;;;-7.21;100.00;100568.52;1626410;87;20177;-72
2022/01/12 10:36:01;;;;;;;30.07;13.17;;;;;;;-6.98;100.00;100564.73;1626553;87;21547;-73
2022/01/12 10:38:28;;;;;;;34.03;14.45;;;;;;;-6.76;100.00;100568.04;1616559;88;21030;-72
2022/01/12 10:41:05;;;;;;;29.77;13.80;;;;;;;-6.59;100.00;100570.97;1675105;85;21070;-70
2022/01/12 10:43:42;;;;;;;35.30;17.00;;;;;;;-6.73;100.00;100578.01;1641220;87;21529;-69
2022/01/12 10:46:20;;;;;;;39.03;23.97;;;;;;;-6.90;100.00;100578.52;1621534;88;21137;-69
2022/01/12 10:48:55;;;;;;;35.83;21.87;;;;;;;-6.98;100.00;100594.13;1606282;87;21068;-69
2022/01/12 10:51:27;;;;;;;35.17;21.97;;;;;;;-7.01;100.00;100593.77;1620902;87;21071;-69
2022/01/12 10:54:04;;;;;;;26.47;13.73;;;;;;;-7.08;100.00;100604.06;1602584;87;21116;-68
2022/01/12 10:56:31;;;;;;;43.57;26.80;;;;;;;-7.23;100.00;100605.82;1575894;90;21051;-72
2022/01/12 10:58:58;;;;;;;27.77;11.50;;;;;;;-7.29;100.00;100604.23;1579684;88;22095;-71
2022/01/12 11:01:27;;;;;;;34.87;17.63;;;;;;;-7.31;100.00;100608.64;1622417;87;21110;-71
2022/01/12 11:03:54;;;;;;;29.27;14.53;;;;;;;-7.32;100.00;100606.48;1654778;85;21535;-72
2022/01/12 11:06:25;;;;;;;36.10;18.43;;;;;;;-7.32;100.00;100607.80;1656283;85;22394;-72
2022/01/12 11:08:52;;;;;;;33.83;17.30;;;;;;;-7.34;100.00;100604.81;1650694;86;21062;-72
2022/01/12 11:11:26;;;;;;;54.40;24.20;;;;;;;-7.42;100.00;100605.47;1660740;85;21587;-72
2022/01/12 11:13:54;;;;;;;54.87;27.13;;;;;;;-7.47;100.00;100596.39;1652183;86;21094;-73
2022/01/12 11:16:24;;;;;;;30.00;15.63;;;;;;;-7.49;100.00;100601.72;1654477;85;21576;-72
2022/01/12 11:18:52;;;;;;;38.53;15.43;;;;;;;-7.50;100.00;100607.02;1658751;85;21519;-71
2022/01/12 11:21:31;;;;;;;44.90;25.30;;;;;;;-7.58;100.00;100600.64;1658062;86;21105;-69
2022/01/12 11:23:58;;;;;;;43.33;25.03;;;;;;;-7.65;100.00;100601.71;1661583;86;21098;-70
2022/01/12 11:26:29;;;;;;;38.73;19.47;;;;;;;-7.73;100.00;100603.25;1660319;86;21030;-70
2022/01/12 11:28:56;;;;;;;43.23;23.10;;;;;;;-7.85;100.00;100603.11;1605354;88;21102;-70
2022/01/12 11:31:29;;;;;;;61.10;36.40;;;;;;;-7.92;100.00;100609.42;1616228;88;21109;-69
2022/01/12 11:33:56;;;;;;;34.80;14.63;;;;;;;-7.98;100.00;100608.29;1569515;90;21072;-70
2022/01/12 11:36:30;;;;;;;39.23;22.63;;;;;;;-7.98;100.00;100604.35;1546183;93;21100;-69
2022/01/12 11:39:12;;;;;;;27.63;15.97;;;;;;;-7.98;100.00;100608.72;1534202;90;21577;-69
2022/01/12 11:41:43;;;;;;;31.00;15.35;;;;;;;-8.01;100.00;100603.11;1547140;88;21099;-68
2022/01/12 11:44:20;;;;;;;29.93;16.67;;;;;;;-7.99;100.00;100599.98;1614078;88;21034;-70
2022/01/12 11:46:56;;;;;;;61.50;36.50;;;;;;;-7.95;100.00;100605.59;1601727;89;21085;-70
2022/01/12 11:49:36;;;;;;;154.87;61.90;;;;;;;-7.93;100.00;100600.28;1554279;92;21090;-69
2022/01/12 11:52:26;;;;;;;39.77;17.20;;;;;;;-7.93;100.00;100597.66;1576128;90;21583;-69
2022/01/12 11:55:12;;;;;;;28.40;15.87;;;;;;;-7.95;100.00;100604.28;1542424;92;21585;-69
2022/01/12 11:57:41;;;;;;;31.37;19.70;;;;;;;-8.04;100.00;100609.31;1539600;90;21240;-70
2022/01/12 12:00:12;;;;;;;39.77;18.77;;;;;;;-8.11;100.00;100604.24;1531105;94;21094;-68
2022/01/12 12:02:46;;;;;;;55.10;30.40;;;;;;;-8.16;100.00;100607.00;1532185;92;21239;-68
2022/01/12 12:05:17;;;;;;;108.63;53.03;;;;;;;-8.20;100.00;100609.27;1542229;92;21139;-69
2022/01/12 12:07:50;;;;;;;112.60;55.13;;;;;;;-8.24;100.00;100604.55;1536911;92;21102;-69
2022/01/12 12:10:22;;;;;;;52.67;29.53;;;;;;;-8.27;100.00;100608.59;1520745;92;21059;-69
2022/01/12 12:12:55;;;;;;;108.22;56.80;;;;;;;-8.32;100.00;100613.51;1554087;92;21521;-70
2022/01/12 12:15:24;;;;;;;63.03;30.73;;;;;;;-8.37;100.00;100607.51;1560532;91;21089;-69
2022/01/12 12:17:53;;;;;;;47.07;24.30;;;;;;;-8.40;100.00;100609.31;1561560;91;21561;-69
2022/01/12 12:20:22;;;;;;;49.50;25.23;;;;;;;-8.42;100.00;100610.30;1554602;92;21102;-70
2022/01/12 12:22:49;;;;;;;52.27;27.47;;;;;;;-8.47;100.00;100610.39;1553476;92;21081;-69
2022/01/12 12:25:22;;;;;;;40.70;22.33;;;;;;;-8.48;100.00;100611.31;1582005;91;21109;-69
2022/01/12 12:27:59;;;;;;;34.80;16.75;;;;;;;-8.48;100.00;100604.75;1561691;91;21097;-70
2022/01/12 12:30:27;;;;;;;50.43;23.27;;;;;;;-8.50;100.00;100607.84;1542736;93;21061;-69
2022/01/12 12:32:57;;;;;;;43.70;20.67;;;;;;;-8.57;100.00;100611.50;1535666;93;21040;-70
2022/01/12 12:35:27;;;;;;;41.27;19.50;;;;;;;-8.62;100.00;100611.62;1531235;93;21069;-70
2022/01/12 12:38:00;;;;;;;36.60;18.37;;;;;;;-8.65;100.00;100615.63;1511374;94;21559;-71
2022/01/12 12:40:35;;;;;;;;;;;;;;;-8.71;100.00;100618.83;1507898;93;21095;-71